sensor_id;sensor_type;location;lat;lon;timestamp;temperature;humidity
66271;DHT22;53063;39.614;8.814;2022-11-18T00:00:52;17.10;99.90
66271;DHT22;53063;39.614;8.814;2022-11-18T00:03:18;17.20;99.90
66271;DHT22;53063;39.614;8.814;2022-11-18T00:05:54;17.20;99.90
66271;DHT22;53063;39.614;8.814;2022-11-18T00:08:22;17.30;99.90
66271;DHT22;53063;39.614;8.814;2022-11-18T00:10:48;17.30;99.90
66271;DHT22;53063;39.614;8.814;2022-11-18T00:13:14;17.30;99.90
66271;DHT22;53063;39.614;8.814;2022-11-18T00:16:04;17.30;99.90
66271;DHT22;53063;39.614;8.814;2022-11-18T00:18:31;17.30;99.90
66271;DHT22;53063;39.614;8.814;2022-11-18T00:21:15;17.30;99.90
66271;DHT22;53063;39.614;8.814;2022-11-18T00:23:41;17.30;99.90
66271;DHT22;53063;39.614;8.814;2022-11-18T00:26:09;17.20;99.90
66271;DHT22;53063;39.614;8.814;2022-11-18T00:28:35;17.20;99.90
66271;DHT22;53063;39.614;8.814;2022-11-18T00:31:12;17.20;99.90
66271;DHT22;53063;39.614;8.814;2022-11-18T00:33:39;17.20;99.90
66271;DHT22;53063;39.614;8.814;2022-11-18T00:36:07;17.20;99.90
66271;DHT22;53063;39.614;8.814;2022-11-18T00:38:33;17.20;99.90
66271;DHT22;53063;39.614;8.814;2022-11-18T00:41:12;17.20;99.90
66271;DHT22;53063;39.614;8.814;2022-11-18T00:43:38;17.20;99.90
66271;DHT22;53063;39.614;8.814;2022-11-18T00:46:06;17.20;99.90
66271;DHT22;53063;39.614;8.814;2022-11-18T00:48:33;17.20;99.90
66271;DHT22;53063;39.614;8.814;2022-11-18T00:51:07;17.20;99.90
66271;DHT22;53063;39.614;8.814;2022-11-18T00:53:33;17.20;99.90
66271;DHT22;53063;39.614;8.814;2022-11-18T00:55:59;17.20;99.90
66271;DHT22;53063;39.614;8.814;2022-11-18T00:58:25;17.20;99.90
66271;DHT22;53063;39.614;8.814;2022-11-18T01:00:51;17.20;99.90
66271;DHT22;53063;39.614;8.814;2022-11-18T01:03:18;17.20;99.90
66271;DHT22;53063;39.614;8.814;2022-11-18T01:05:44;17.20;99.90
66271;DHT22;53063;39.614;8.814;2022-11-18T01:08:11;17.10;99.90
66271;DHT22;53063;39.614;8.814;2022-11-18T01:10:38;17.10;99.90
66271;DHT22;53063;39.614;8.814;2022-11-18T01:13:06;17.20;99.90
66271;DHT22;53063;39.614;8.814;2022-11-18T01:15:55;17.20;99.90
66271;DHT22;53063;39.614;8.814;2022-11-18T01:18:27;17.20;99.90
66271;DHT22;53063;39.614;8.814;2022-11-18T01:20:54;17.20;99.90
66271;DHT22;53063;39.614;8.814;2022-11-18T01:23:24;17.20;99.90
66271;DHT22;53063;39.614;8.814;2022-11-18T01:25:50;17.20;99.90
66271;DHT22;53063;39.614;8.814;2022-11-18T01:28:17;17.10;99.90
66271;DHT22;53063;39.614;8.814;2022-11-18T01:30:44;17.10;99.90
66271;DHT22;53063;39.614;8.814;2022-11-18T01:33:10;17.20;99.90
66271;DHT22;53063;39.614;8.814;2022-11-18T01:35:41;17.10;99.90
66271;DHT22;53063;39.614;8.814;2022-11-18T01:38:10;17.20;99.90
66271;DHT22;53063;39.614;8.814;2022-11-18T01:40:37;17.10;99.90
66271;DHT22;53063;39.614;8.814;2022-11-18T01:43:12;17.10;99.90
66271;DHT22;53063;39.614;8.814;2022-11-18T01:45:40;17.10;99.90
66271;DHT22;53063;39.614;8.814;2022-11-18T01:48:19;17.10;99.90
66271;DHT22;53063;39.614;8.814;2022-11-18T01:50:57;17.10;99.90
66271;DHT22;53063;39.614;8.814;2022-11-18T01:53:55;17.10;99.90
66271;DHT22;53063;39.614;8.814;2022-11-18T01:56:33;17.20;99.90
66271;DHT22;53063;39.614;8.814;2022-11-18T01:59:05;17.20;99.90
66271;DHT22;53063;39.614;8.814;2022-11-18T02:01:32;17.20;99.90
66271;DHT22;53063;39.614;8.814;2022-11-18T02:03:58;17.20;99.90
66271;DHT22;53063;39.614;8.814;2022-11-18T02:06:24;17.20;99.90
66271;DHT22;53063;39.614;8.814;2022-11-18T02:08:50;17.20;99.90
66271;DHT22;53063;39.614;8.814;2022-11-18T02:11:17;17.20;99.90
66271;DHT22;53063;39.614;8.814;2022-11-18T02:14:04;17.20;99.90
66271;DHT22;53063;39.614;8.814;2022-11-18T02:30:19;17.00;99.90
66271;DHT22;53063;39.614;8.814;2022-11-18T02:32:55;17.10;99.90
66271;DHT22;53063;39.614;8.814;2022-11-18T02:35:43;17.00;99.90
66271;DHT22;53063;39.614;8.814;2022-11-18T02:38:39;17.00;99.90
66271;DHT22;53063;39.614;8.814;2022-11-18T02:41:09;17.00;99.90
66271;DHT22;53063;39.614;8.814;2022-11-18T02:43:45;17.00;99.90
66271;DHT22;53063;39.614;8.814;2022-11-18T02:46:15;17.10;99.90
66271;DHT22;53063;39.614;8.814;2022-11-18T02:48:46;17.00;99.90
66271;DHT22;53063;39.614;8.814;2022-11-18T02:51:16;17.10;99.90
66271;DHT22;53063;39.614;8.814;2022-11-18T02:53:44;17.10;99.90
66271;DHT22;53063;39.614;8.814;2022-11-18T02:56:12;17.20;99.90
66271;DHT22;53063;39.614;8.814;2022-11-18T02:58:38;17.30;99.90
66271;DHT22;53063;39.614;8.814;2022-11-18T03:01:04;17.30;99.90
66271;DHT22;53063;39.614;8.814;2022-11-18T03:03:32;17.30;99.90
66271;DHT22;53063;39.614;8.814;2022-11-18T03:06:07;17.30;99.90
66271;DHT22;53063;39.614;8.814;2022-11-18T03:08:43;17.30;99.90
66271;DHT22;53063;39.614;8.814;2022-11-18T03:11:17;17.20;99.90
66271;DHT22;53063;39.614;8.814;2022-11-18T03:14:17;17.20;99.90
66271;DHT22;53063;39.614;8.814;2022-11-18T03:24:40;17.20;99.90
66271;DHT22;53063;39.614;8.814;2022-11-18T03:27:15;17.20;99.90
66271;DHT22;53063;39.614;8.814;2022-11-18T03:30:16;17.20;99.90
66271;DHT22;53063;39.614;8.814;2022-11-18T03:32:43;17.00;99.90
66271;DHT22;53063;39.614;8.814;2022-11-18T03:35:31;16.90;99.90
66271;DHT22;53063;39.614;8.814;2022-11-18T03:38:06;16.90;99.90
66271;DHT22;53063;39.614;8.814;2022-11-18T03:40:35;17.00;99.90
66271;DHT22;53063;39.614;8.814;2022-11-18T03:43:08;17.10;99.90
66271;DHT22;53063;39.614;8.814;2022-11-18T03:45:43;17.20;99.90
66271;DHT22;53063;39.614;8.814;2022-11-18T03:48:22;17.20;99.90
66271;DHT22;53063;39.614;8.814;2022-11-18T03:51:06;17.20;99.90
66271;DHT22;53063;39.614;8.814;2022-11-18T03:53:37;17.30;99.90
66271;DHT22;53063;39.614;8.814;2022-11-18T03:56:20;17.30;99.90
66271;DHT22;53063;39.614;8.814;2022-11-18T04:01:21;17.30;99.90
66271;DHT22;53063;39.614;8.814;2022-11-18T04:03:50;17.30;99.90
66271;DHT22;53063;39.614;8.814;2022-11-18T04:06:24;17.20;99.90
66271;DHT22;53063;39.614;8.814;2022-11-18T04:08:57;17.30;99.90
66271;DHT22;53063;39.614;8.814;2022-11-18T04:11:32;17.30;99.90
66271;DHT22;53063;39.614;8.814;2022-11-18T04:14:19;17.30;99.90
66271;DHT22;53063;39.614;8.814;2022-11-18T04:16:50;17.40;99.90
66271;DHT22;53063;39.614;8.814;2022-11-18T04:19:16;17.40;99.90
66271;DHT22;53063;39.614;8.814;2022-11-18T04:21:42;17.40;99.90
66271;DHT22;53063;39.614;8.814;2022-11-18T04:24:08;17.50;99.90
66271;DHT22;53063;39.614;8.814;2022-11-18T04:26:34;17.50;99.90
66271;DHT22;53063;39.614;8.814;2022-11-18T04:29:00;17.50;99.90
66271;DHT22;53063;39.614;8.814;2022-11-18T04:31:26;17.50;99.90
66271;DHT22;53063;39.614;8.814;2022-11-18T04:33:52;17.50;99.90
66271;DHT22;53063;39.614;8.814;2022-11-18T04:36:18;17.40;99.90
66271;DHT22;53063;39.614;8.814;2022-11-18T04:38:45;17.40;99.90
66271;DHT22;53063;39.614;8.814;2022-11-18T04:41:11;17.40;99.90
66271;DHT22;53063;39.614;8.814;2022-11-18T04:43:36;17.40;99.90
66271;DHT22;53063;39.614;8.814;2022-11-18T04:46:02;17.50;99.90
66271;DHT22;53063;39.614;8.814;2022-11-18T04:48:28;17.50;99.90
66271;DHT22;53063;39.614;8.814;2022-11-18T04:51:01;17.50;99.90
66271;DHT22;53063;39.614;8.814;2022-11-18T04:53:26;17.50;99.90
66271;DHT22;53063;39.614;8.814;2022-11-18T04:55:52;17.50;99.90
66271;DHT22;53063;39.614;8.814;2022-11-18T04:58:18;17.50;99.90
66271;DHT22;53063;39.614;8.814;2022-11-18T05:00:44;17.50;99.90
66271;DHT22;53063;39.614;8.814;2022-11-18T05:03:10;17.40;99.90
66271;DHT22;53063;39.614;8.814;2022-11-18T05:05:36;17.40;99.90
66271;DHT22;53063;39.614;8.814;2022-11-18T05:08:02;17.40;99.90
66271;DHT22;53063;39.614;8.814;2022-11-18T05:10:28;17.30;99.90
66271;DHT22;53063;39.614;8.814;2022-11-18T05:12:54;17.30;99.90
66271;DHT22;53063;39.614;8.814;2022-11-18T05:15:21;17.30;99.90
66271;DHT22;53063;39.614;8.814;2022-11-18T05:17:50;17.30;99.90
66271;DHT22;53063;39.614;8.814;2022-11-18T05:20:16;17.30;99.90
66271;DHT22;53063;39.614;8.814;2022-11-18T05:22:42;17.30;99.90
66271;DHT22;53063;39.614;8.814;2022-11-18T05:25:08;17.30;99.90
66271;DHT22;53063;39.614;8.814;2022-11-18T05:27:34;17.30;99.90
66271;DHT22;53063;39.614;8.814;2022-11-18T05:30:00;17.30;99.90
66271;DHT22;53063;39.614;8.814;2022-11-18T05:32:26;17.30;99.90
66271;DHT22;53063;39.614;8.814;2022-11-18T05:34:52;17.40;99.90
66271;DHT22;53063;39.614;8.814;2022-11-18T05:37:18;17.50;99.90
66271;DHT22;53063;39.614;8.814;2022-11-18T05:39:44;17.50;99.90
66271;DHT22;53063;39.614;8.814;2022-11-18T05:42:10;17.50;99.90
66271;DHT22;53063;39.614;8.814;2022-11-18T05:44:54;17.50;99.90
66271;DHT22;53063;39.614;8.814;2022-11-18T05:47:20;17.50;99.90
66271;DHT22;53063;39.614;8.814;2022-11-18T05:49:49;17.40;99.90
66271;DHT22;53063;39.614;8.814;2022-11-18T05:52:15;17.30;99.90
66271;DHT22;53063;39.614;8.814;2022-11-18T05:54:46;17.10;99.90
66271;DHT22;53063;39.614;8.814;2022-11-18T05:57:13;17.00;99.90
66271;DHT22;53063;39.614;8.814;2022-11-18T05:59:39;16.90;99.90
66271;DHT22;53063;39.614;8.814;2022-11-18T06:02:10;16.80;99.90
66271;DHT22;53063;39.614;8.814;2022-11-18T06:04:43;16.70;99.90
66271;DHT22;53063;39.614;8.814;2022-11-18T06:07:40;16.60;99.90
66271;DHT22;53063;39.614;8.814;2022-11-18T06:10:09;16.50;99.90
66271;DHT22;53063;39.614;8.814;2022-11-18T06:12:39;16.30;99.90
66271;DHT22;53063;39.614;8.814;2022-11-18T06:15:40;16.20;99.90
66271;DHT22;53063;39.614;8.814;2022-11-18T06:20:37;16.00;99.90
66271;DHT22;53063;39.614;8.814;2022-11-18T06:23:03;16.00;99.90
66271;DHT22;53063;39.614;8.814;2022-11-18T06:25:29;16.00;99.90
66271;DHT22;53063;39.614;8.814;2022-11-18T06:27:59;16.00;99.90
66271;DHT22;53063;39.614;8.814;2022-11-18T06:30:25;16.00;99.90
66271;DHT22;53063;39.614;8.814;2022-11-18T06:32:51;15.90;99.90
66271;DHT22;53063;39.614;8.814;2022-11-18T06:35:17;15.80;99.90
66271;DHT22;53063;39.614;8.814;2022-11-18T06:37:43;15.80;99.90
66271;DHT22;53063;39.614;8.814;2022-11-18T06:40:09;15.70;99.90
66271;DHT22;53063;39.614;8.814;2022-11-18T06:42:36;15.90;99.90
66271;DHT22;53063;39.614;8.814;2022-11-18T06:45:20;16.00;99.90
66271;DHT22;53063;39.614;8.814;2022-11-18T06:47:46;16.00;99.90
66271;DHT22;53063;39.614;8.814;2022-11-18T06:50:12;16.00;99.90
66271;DHT22;53063;39.614;8.814;2022-11-18T06:52:38;16.00;99.90
66271;DHT22;53063;39.614;8.814;2022-11-18T06:55:04;15.90;99.90
66271;DHT22;53063;39.614;8.814;2022-11-18T06:57:33;15.90;99.90
66271;DHT22;53063;39.614;8.814;2022-11-18T06:59:59;15.90;99.90
66271;DHT22;53063;39.614;8.814;2022-11-18T07:02:25;16.00;99.90
66271;DHT22;53063;39.614;8.814;2022-11-18T07:04:51;16.20;99.90
66271;DHT22;53063;39.614;8.814;2022-11-18T07:07:17;16.40;99.90
66271;DHT22;53063;39.614;8.814;2022-11-18T07:09:43;16.50;99.90
66271;DHT22;53063;39.614;8.814;2022-11-18T07:12:09;16.70;99.90
66271;DHT22;53063;39.614;8.814;2022-11-18T07:14:35;17.00;99.90
66271;DHT22;53063;39.614;8.814;2022-11-18T07:17:01;17.10;99.90
66271;DHT22;53063;39.614;8.814;2022-11-18T07:19:27;17.00;99.90
66271;DHT22;53063;39.614;8.814;2022-11-18T07:21:53;17.20;99.90
66271;DHT22;53063;39.614;8.814;2022-11-18T07:24:19;17.00;99.90
66271;DHT22;53063;39.614;8.814;2022-11-18T07:26:45;16.90;99.90
66271;DHT22;53063;39.614;8.814;2022-11-18T07:29:11;16.80;99.90
66271;DHT22;53063;39.614;8.814;2022-11-18T07:31:37;16.70;99.90
66271;DHT22;53063;39.614;8.814;2022-11-18T07:34:04;17.10;99.90
66271;DHT22;53063;39.614;8.814;2022-11-18T07:36:30;18.00;99.90
66271;DHT22;53063;39.614;8.814;2022-11-18T07:39:00;19.20;99.90
66271;DHT22;53063;39.614;8.814;2022-11-18T07:41:27;19.60;99.90
66271;DHT22;53063;39.614;8.814;2022-11-18T07:43:55;20.30;99.90
66271;DHT22;53063;39.614;8.814;2022-11-18T07:46:27;21.10;99.90
66271;DHT22;53063;39.614;8.814;2022-11-18T07:48:56;22.80;92.50
66271;DHT22;53063;39.614;8.814;2022-11-18T07:51:25;24.00;78.90
66271;DHT22;53063;39.614;8.814;2022-11-18T07:53:52;24.40;73.60
66271;DHT22;53063;39.614;8.814;2022-11-18T07:56:18;25.20;70.60
66271;DHT22;53063;39.614;8.814;2022-11-18T07:58:44;25.00;69.60
66271;DHT22;53063;39.614;8.814;2022-11-18T08:01:18;25.80;67.10
66271;DHT22;53063;39.614;8.814;2022-11-18T08:03:45;25.60;64.70
66271;DHT22;53063;39.614;8.814;2022-11-18T08:06:13;26.20;63.90
66271;DHT22;53063;39.614;8.814;2022-11-18T08:08:40;26.50;61.50
66271;DHT22;53063;39.614;8.814;2022-11-18T08:11:10;23.90;69.90
66271;DHT22;53063;39.614;8.814;2022-11-18T08:13:36;25.20;67.50
66271;DHT22;53063;39.614;8.814;2022-11-18T08:16:04;26.30;64.40
66271;DHT22;53063;39.614;8.814;2022-11-18T08:18:31;26.90;60.90
66271;DHT22;53063;39.614;8.814;2022-11-18T08:21:01;27.20;59.70
66271;DHT22;53063;39.614;8.814;2022-11-18T08:23:28;25.90;61.20
66271;DHT22;53063;39.614;8.814;2022-11-18T08:26:07;23.70;68.80
66271;DHT22;53063;39.614;8.814;2022-11-18T08:28:34;26.10;62.90
66271;DHT22;53063;39.614;8.814;2022-11-18T08:33:39;27.40;58.10
66271;DHT22;53063;39.614;8.814;2022-11-18T08:36:07;27.90;57.60
66271;DHT22;53063;39.614;8.814;2022-11-18T08:38:34;27.90;56.10
66271;DHT22;53063;39.614;8.814;2022-11-18T08:41:00;28.20;54.20
66271;DHT22;53063;39.614;8.814;2022-11-18T08:43:26;28.20;57.00
66271;DHT22;53063;39.614;8.814;2022-11-18T08:45:52;28.60;55.10
66271;DHT22;53063;39.614;8.814;2022-11-18T08:48:18;28.90;53.20
66271;DHT22;53063;39.614;8.814;2022-11-18T08:50:43;29.20;52.00
66271;DHT22;53063;39.614;8.814;2022-11-18T08:53:09;29.00;52.90
66271;DHT22;53063;39.614;8.814;2022-11-18T08:55:35;29.10;52.20
66271;DHT22;53063;39.614;8.814;2022-11-18T08:58:01;29.20;52.40
66271;DHT22;53063;39.614;8.814;2022-11-18T09:00:27;29.50;51.10
66271;DHT22;53063;39.614;8.814;2022-11-18T09:02:53;29.20;50.80
66271;DHT22;53063;39.614;8.814;2022-11-18T09:05:19;29.40;51.40
66271;DHT22;53063;39.614;8.814;2022-11-18T09:07:45;27.10;54.60
66271;DHT22;53063;39.614;8.814;2022-11-18T09:10:11;25.20;60.90
66271;DHT22;53063;39.614;8.814;2022-11-18T09:12:37;28.10;54.30
66271;DHT22;53063;39.614;8.814;2022-11-18T09:15:03;29.40;51.00
66271;DHT22;53063;39.614;8.814;2022-11-18T09:17:29;30.00;50.30
66271;DHT22;53063;39.614;8.814;2022-11-18T09:19:55;27.50;53.30
66271;DHT22;53063;39.614;8.814;2022-11-18T09:22:21;26.30;59.20
66271;DHT22;53063;39.614;8.814;2022-11-18T09:24:46;28.30;53.00
66271;DHT22;53063;39.614;8.814;2022-11-18T09:27:12;29.70;50.90
66271;DHT22;53063;39.614;8.814;2022-11-18T09:29:38;26.90;55.60
66271;DHT22;53063;39.614;8.814;2022-11-18T09:32:04;24.70;61.40
66271;DHT22;53063;39.614;8.814;2022-11-18T09:34:33;22.60;67.00
66271;DHT22;53063;39.614;8.814;2022-11-18T09:37:01;26.90;58.10
66271;DHT22;53063;39.614;8.814;2022-11-18T09:39:27;29.30;51.90
66271;DHT22;53063;39.614;8.814;2022-11-18T09:42:40;30.00;50.00
66271;DHT22;53063;39.614;8.814;2022-11-18T09:45:20;28.80;49.50
66271;DHT22;53063;39.614;8.814;2022-11-18T09:47:48;28.70;50.10
66271;DHT22;53063;39.614;8.814;2022-11-18T09:50:23;26.00;56.10
66271;DHT22;53063;39.614;8.814;2022-11-18T09:53:21;25.10;59.20
66271;DHT22;53063;39.614;8.814;2022-11-18T09:55:48;23.80;59.60
66271;DHT22;53063;39.614;8.814;2022-11-18T09:58:20;24.40;61.70
66271;DHT22;53063;39.614;8.814;2022-11-18T10:00:47;25.80;56.20
66271;DHT22;53063;39.614;8.814;2022-11-18T10:03:26;26.10;58.90
66271;DHT22;53063;39.614;8.814;2022-11-18T10:11:23;26.40;55.80
66271;DHT22;53063;39.614;8.814;2022-11-18T10:16:39;24.80;57.50
66271;DHT22;53063;39.614;8.814;2022-11-18T10:24:38;21.00;69.50
66271;DHT22;53063;39.614;8.814;2022-11-18T10:27:10;20.80;70.30
66271;DHT22;53063;39.614;8.814;2022-11-18T10:29:37;21.50;68.70
66271;DHT22;53063;39.614;8.814;2022-11-18T10:32:11;21.80;67.90
66271;DHT22;53063;39.614;8.814;2022-11-18T10:34:52;23.40;63.70
66271;DHT22;53063;39.614;8.814;2022-11-18T10:40:03;24.40;60.10
66271;DHT22;53063;39.614;8.814;2022-11-18T10:42:40;23.90;60.90
66271;DHT22;53063;39.614;8.814;2022-11-18T10:52:55;22.20;66.30
66271;DHT22;53063;39.614;8.814;2022-11-18T10:55:25;21.90;66.40
66271;DHT22;53063;39.614;8.814;2022-11-18T10:57:55;21.10;68.60
66271;DHT22;53063;39.614;8.814;2022-11-18T11:00:33;22.10;67.10
66271;DHT22;53063;39.614;8.814;2022-11-18T11:02:59;22.30;65.10
66271;DHT22;53063;39.614;8.814;2022-11-18T11:05:26;21.90;65.70
66271;DHT22;53063;39.614;8.814;2022-11-18T11:08:16;22.50;66.40
66271;DHT22;53063;39.614;8.814;2022-11-18T11:10:53;22.80;65.80
66271;DHT22;53063;39.614;8.814;2022-11-18T11:13:26;23.10;64.30
66271;DHT22;53063;39.614;8.814;2022-11-18T11:15:54;22.60;63.80
66271;DHT22;53063;39.614;8.814;2022-11-18T11:18:29;22.00;65.70
66271;DHT22;53063;39.614;8.814;2022-11-18T11:21:13;22.00;65.60
66271;DHT22;53063;39.614;8.814;2022-11-18T11:23:40;21.60;64.30
66271;DHT22;53063;39.614;8.814;2022-11-18T11:29:09;21.00;66.30
66271;DHT22;53063;39.614;8.814;2022-11-18T11:42:20;22.00;65.70
66271;DHT22;53063;39.614;8.814;2022-11-18T11:50:21;21.80;64.60
66271;DHT22;53063;39.614;8.814;2022-11-18T11:56:03;22.20;64.30
66271;DHT22;53063;39.614;8.814;2022-11-18T11:59:33;21.40;64.60
66271;DHT22;53063;39.614;8.814;2022-11-18T12:02:28;21.00;65.60
66271;DHT22;53063;39.614;8.814;2022-11-18T12:07:39;21.10;64.50
66271;DHT22;53063;39.614;8.814;2022-11-18T12:13:16;20.70;66.00
66271;DHT22;53063;39.614;8.814;2022-11-18T12:16:10;20.70;67.10
66271;DHT22;53063;39.614;8.814;2022-11-18T12:21:08;21.80;63.90
66271;DHT22;53063;39.614;8.814;2022-11-18T12:24:31;21.80;62.50
66271;DHT22;53063;39.614;8.814;2022-11-18T12:27:00;21.80;64.10
66271;DHT22;53063;39.614;8.814;2022-11-18T12:48:27;22.30;62.90
66271;DHT22;53063;39.614;8.814;2022-11-18T12:50:58;22.30;62.90
66271;DHT22;53063;39.614;8.814;2022-11-18T12:53:34;21.90;63.30
66271;DHT22;53063;39.614;8.814;2022-11-18T13:01:13;22.00;63.30
66271;DHT22;53063;39.614;8.814;2022-11-18T13:03:40;22.20;62.70
66271;DHT22;53063;39.614;8.814;2022-11-18T13:06:30;22.10;63.40
66271;DHT22;53063;39.614;8.814;2022-11-18T13:08:59;22.20;61.80
66271;DHT22;53063;39.614;8.814;2022-11-18T13:11:28;22.40;63.10
66271;DHT22;53063;39.614;8.814;2022-11-18T13:17:00;22.70;62.40
66271;DHT22;53063;39.614;8.814;2022-11-18T13:19:55;22.90;62.60
66271;DHT22;53063;39.614;8.814;2022-11-18T13:22:22;22.80;63.50
66271;DHT22;53063;39.614;8.814;2022-11-18T13:25:22;22.90;62.70
66271;DHT22;53063;39.614;8.814;2022-11-18T13:30:23;22.60;62.00
66271;DHT22;53063;39.614;8.814;2022-11-18T13:32:50;22.10;63.80
66271;DHT22;53063;39.614;8.814;2022-11-18T13:35:20;21.60;65.20
66271;DHT22;53063;39.614;8.814;2022-11-18T13:40:31;22.30;65.30
66271;DHT22;53063;39.614;8.814;2022-11-18T13:43:03;22.80;63.70
66271;DHT22;53063;39.614;8.814;2022-11-18T13:45:30;23.10;63.30
66271;DHT22;53063;39.614;8.814;2022-11-18T13:48:06;22.90;62.80
66271;DHT22;53063;39.614;8.814;2022-11-18T13:50:40;22.30;63.70
66271;DHT22;53063;39.614;8.814;2022-11-18T13:53:29;22.20;64.20
66271;DHT22;53063;39.614;8.814;2022-11-18T13:56:05;21.90;65.30
66271;DHT22;53063;39.614;8.814;2022-11-18T14:01:23;22.10;65.30
66271;DHT22;53063;39.614;8.814;2022-11-18T14:03:54;22.20;65.10
66271;DHT22;53063;39.614;8.814;2022-11-18T14:06:30;22.40;64.70
66271;DHT22;53063;39.614;8.814;2022-11-18T14:11:42;22.90;63.70
66271;DHT22;53063;39.614;8.814;2022-11-18T14:14:09;22.90;61.30
66271;DHT22;53063;39.614;8.814;2022-11-18T14:16:38;22.20;63.90
66271;DHT22;53063;39.614;8.814;2022-11-18T14:19:05;21.80;64.10
66271;DHT22;53063;39.614;8.814;2022-11-18T14:21:35;21.60;65.40
66271;DHT22;53063;39.614;8.814;2022-11-18T14:24:03;21.50;66.40
66271;DHT22;53063;39.614;8.814;2022-11-18T14:26:33;21.20;67.10
66271;DHT22;53063;39.614;8.814;2022-11-18T14:29:02;21.10;67.60
66271;DHT22;53063;39.614;8.814;2022-11-18T14:31:37;21.10;67.80
66271;DHT22;53063;39.614;8.814;2022-11-18T14:34:23;20.90;68.60
66271;DHT22;53063;39.614;8.814;2022-11-18T14:36:50;20.60;68.60
66271;DHT22;53063;39.614;8.814;2022-11-18T14:39:30;20.00;68.50
66271;DHT22;53063;39.614;8.814;2022-11-18T14:41:57;19.80;70.10
66271;DHT22;53063;39.614;8.814;2022-11-18T14:44:25;20.00;70.20
66271;DHT22;53063;39.614;8.814;2022-11-18T14:47:31;19.90;70.30
66271;DHT22;53063;39.614;8.814;2022-11-18T14:49:56;19.90;70.10
66271;DHT22;53063;39.614;8.814;2022-11-18T14:52:22;19.70;70.20
66271;DHT22;53063;39.614;8.814;2022-11-18T14:54:48;19.70;70.90
66271;DHT22;53063;39.614;8.814;2022-11-18T14:57:15;19.70;70.50
66271;DHT22;53063;39.614;8.814;2022-11-18T14:59:42;19.60;70.30
66271;DHT22;53063;39.614;8.814;2022-11-18T15:02:16;19.40;70.70
66271;DHT22;53063;39.614;8.814;2022-11-18T15:04:42;19.30;71.50
66271;DHT22;53063;39.614;8.814;2022-11-18T15:07:13;19.20;71.00
66271;DHT22;53063;39.614;8.814;2022-11-18T15:09:40;19.10;71.90
66271;DHT22;53063;39.614;8.814;2022-11-18T15:12:06;19.00;72.50
66271;DHT22;53063;39.614;8.814;2022-11-18T15:14:33;18.80;72.90
66271;DHT22;53063;39.614;8.814;2022-11-18T15:17:01;18.60;73.40
66271;DHT22;53063;39.614;8.814;2022-11-18T15:19:27;18.50;74.50
66271;DHT22;53063;39.614;8.814;2022-11-18T15:21:53;18.30;75.00
66271;DHT22;53063;39.614;8.814;2022-11-18T15:24:19;18.30;75.90
66271;DHT22;53063;39.614;8.814;2022-11-18T15:26:46;18.20;76.50
66271;DHT22;53063;39.614;8.814;2022-11-18T15:29:23;18.10;77.10
66271;DHT22;53063;39.614;8.814;2022-11-18T15:31:50;18.00;77.50
66271;DHT22;53063;39.614;8.814;2022-11-18T15:34:18;17.80;77.70
66271;DHT22;53063;39.614;8.814;2022-11-18T15:36:44;17.80;78.70
66271;DHT22;53063;39.614;8.814;2022-11-18T15:39:10;17.70;79.20
66271;DHT22;53063;39.614;8.814;2022-11-18T15:41:38;17.60;80.10
66271;DHT22;53063;39.614;8.814;2022-11-18T15:44:05;17.60;80.60
66271;DHT22;53063;39.614;8.814;2022-11-18T15:46:31;17.60;81.10
66271;DHT22;53063;39.614;8.814;2022-11-18T15:49:00;17.60;81.20
66271;DHT22;53063;39.614;8.814;2022-11-18T15:51:27;17.50;81.80
66271;DHT22;53063;39.614;8.814;2022-11-18T15:53:54;17.50;82.10
66271;DHT22;53063;39.614;8.814;2022-11-18T15:59:05;17.40;82.30
66271;DHT22;53063;39.614;8.814;2022-11-18T16:01:36;17.40;82.70
66271;DHT22;53063;39.614;8.814;2022-11-18T16:04:03;17.30;83.30
66271;DHT22;53063;39.614;8.814;2022-11-18T16:06:30;17.20;83.90
66271;DHT22;53063;39.614;8.814;2022-11-18T16:08:56;17.10;84.50
66271;DHT22;53063;39.614;8.814;2022-11-18T16:11:23;17.20;84.60
66271;DHT22;53063;39.614;8.814;2022-11-18T16:14:09;17.20;83.90
66271;DHT22;53063;39.614;8.814;2022-11-18T16:16:38;17.10;84.40
66271;DHT22;53063;39.614;8.814;2022-11-18T16:19:06;17.00;84.70
66271;DHT22;53063;39.614;8.814;2022-11-18T16:21:35;16.90;85.10
66271;DHT22;53063;39.614;8.814;2022-11-18T16:24:03;16.90;84.70
66271;DHT22;53063;39.614;8.814;2022-11-18T16:26:30;16.80;85.50
66271;DHT22;53063;39.614;8.814;2022-11-18T16:28:56;16.80;85.90
66271;DHT22;53063;39.614;8.814;2022-11-18T16:31:26;16.80;85.50
66271;DHT22;53063;39.614;8.814;2022-11-18T16:36:38;16.90;84.20
66271;DHT22;53063;39.614;8.814;2022-11-18T16:39:09;16.80;83.40
66271;DHT22;53063;39.614;8.814;2022-11-18T16:41:37;16.90;83.10
66271;DHT22;53063;39.614;8.814;2022-11-18T16:44:09;16.90;82.80
66271;DHT22;53063;39.614;8.814;2022-11-18T16:46:37;16.90;82.70
66271;DHT22;53063;39.614;8.814;2022-11-18T16:49:04;16.90;82.30
66271;DHT22;53063;39.614;8.814;2022-11-18T16:51:32;16.80;82.40
66271;DHT22;53063;39.614;8.814;2022-11-18T16:54:00;16.80;82.80
66271;DHT22;53063;39.614;8.814;2022-11-18T16:56:28;16.70;82.70
66271;DHT22;53063;39.614;8.814;2022-11-18T16:59:01;16.50;83.40
66271;DHT22;53063;39.614;8.814;2022-11-18T17:01:28;16.50;83.90
66271;DHT22;53063;39.614;8.814;2022-11-18T17:03:55;16.40;84.40
66271;DHT22;53063;39.614;8.814;2022-11-18T17:06:23;16.30;84.40
66271;DHT22;53063;39.614;8.814;2022-11-18T17:08:49;16.20;85.10
66271;DHT22;53063;39.614;8.814;2022-11-18T17:11:16;16.00;86.30
66271;DHT22;53063;39.614;8.814;2022-11-18T17:13:42;15.70;87.60
66271;DHT22;53063;39.614;8.814;2022-11-18T17:16:14;15.70;89.00
66271;DHT22;53063;39.614;8.814;2022-11-18T17:18:41;15.60;90.10
66271;DHT22;53063;39.614;8.814;2022-11-18T17:21:09;15.50;90.70
66271;DHT22;53063;39.614;8.814;2022-11-18T17:23:37;15.60;91.40
66271;DHT22;53063;39.614;8.814;2022-11-18T17:26:04;15.50;91.30
66271;DHT22;53063;39.614;8.814;2022-11-18T17:28:31;15.40;91.20
66271;DHT22;53063;39.614;8.814;2022-11-18T17:31:13;15.50;91.60
66271;DHT22;53063;39.614;8.814;2022-11-18T17:33:39;15.40;91.60
66271;DHT22;53063;39.614;8.814;2022-11-18T17:38:34;15.50;91.60
66271;DHT22;53063;39.614;8.814;2022-11-18T17:41:00;15.60;92.00
66271;DHT22;53063;39.614;8.814;2022-11-18T17:43:26;15.50;92.20
66271;DHT22;53063;39.614;8.814;2022-11-18T17:45:54;15.60;92.60
66271;DHT22;53063;39.614;8.814;2022-11-18T17:48:22;15.50;92.90
66271;DHT22;53063;39.614;8.814;2022-11-18T17:50:48;15.50;93.40
66271;DHT22;53063;39.614;8.814;2022-11-18T17:53:15;15.50;94.20
66271;DHT22;53063;39.614;8.814;2022-11-18T17:55:41;15.50;94.10
66271;DHT22;53063;39.614;8.814;2022-11-18T17:58:08;15.40;94.50
66271;DHT22;53063;39.614;8.814;2022-11-18T18:00:34;15.30;94.80